Flight Track Log - Related Links

Times and Time Zones

All times are in EDT time to prevent confusion due to time zone crossing. See the C-GCFB flight status page for this flight to view local times or setup timezone preferences in your user account.

Time Position Orientation Groundspeed Altitude Reporting Facility
EDT Latitude Longitude Course Direction KTS MPH feet Rate Location/Type
Fri 09:59:17 AM 51.8833 -100.7667 131° Southeast 240 276 9,500  Level Winnipeg Center
Fri 10:00:17 AM 51.8333 -100.6833 134° Southeast 230 265 10,900 1,250 Climbing Winnipeg Center
Fri 10:01:17 AM 51.8000 -100.6000 123° Southeast 230 265 12,000 1,100 Climbing Winnipeg Center
Fri 10:02:17 AM 51.7500 -100.5333 140° Southeast 230 265 13,100 1,050 Climbing Winnipeg Center
Fri 10:03:17 AM 51.7000 -100.4500 134° Southeast 230 265 14,100 800 Climbing Winnipeg Center
Fri 10:04:00 AM 51.5838 -100.2092 131° Southeast  Level FlightAware Approximate
Fri 10:04:17 AM 51.6667 -100.3667 123° Southeast 240 276 14,700  Level Winnipeg Center
Fri 10:05:17 AM 51.6167 -100.2833 134° Southeast 250 288 15,000 150 Climbing Winnipeg Center
Fri 10:06:17 AM 51.5833 -100.2000 123° Southeast 270 311 15,000  Level Winnipeg Center
Fri 10:07:17 AM 51.5167 -100.0833 133° Southeast 270 311 15,000  Level Winnipeg Center
Fri 10:08:17 AM 51.4667 -100.0000 134° Southeast 280 322 15,000  Level Winnipeg Center
Fri 10:09:17 AM 51.4167 -99.8833 124° Southeast 280 322 15,000  Level Winnipeg Center
Fri 10:10:17 AM 51.3667 -99.8000 134° Southeast 280 322 15,000  Level Winnipeg Center
Fri 10:11:17 AM 51.3167 -99.7000 129° Southeast 280 322 15,000  Level Winnipeg Center
Fri 10:12:17 AM 51.2667 -99.6167 134° Southeast 280 322 15,000  Level Winnipeg Center
Fri 10:13:17 AM 51.2000 -99.5333 142° Southeast 280 322 15,000  Level Winnipeg Center
Fri 10:14:17 AM 51.1667 -99.4167 114° Southeast 280 322 15,000  Level Winnipeg Center
Fri 10:15:17 AM 51.1167 -99.3333 134° Southeast 280 322 15,000  Level Winnipeg Center
Fri 10:16:17 AM 51.0667 -99.2333 128° Southeast 280 322 15,000  Level Winnipeg Center
Fri 10:17:17 AM 51.0000 -99.1500 142° Southeast 280 322 15,000  Level Winnipeg Center
Fri 10:18:17 AM 50.9500 -99.0667 134° Southeast 280 322 15,000  Level Winnipeg Center
Fri 10:19:17 AM 50.9000 -98.9500 124° Southeast 280 322 15,000  Level Winnipeg Center
Fri 10:20:17 AM 50.8500 -98.8667 134° Southeast 280 322 15,000  Level Winnipeg Center
Fri 10:21:17 AM 50.8000 -98.8000 140° Southeast 280 322 15,000  Level Winnipeg Center
Fri 10:22:17 AM 50.7333 -98.6833 132° Southeast 280 322 15,000 50 Level Winnipeg Center
Fri 10:23:17 AM 50.6833 -98.6000 133° Southeast 280 322 15,100  Climbing Winnipeg Center
Fri 10:24:17 AM 50.6333 -98.5000 128° Southeast 280 322 15,000 -50 Descending Winnipeg Center
Fri 10:25:17 AM 50.5833 -98.4167 133° Southeast 280 322 15,000 -300 Level Winnipeg Center
Fri 10:26:17 AM 50.5333 -98.3167 128° Southeast 290 334 14,400 -750 Descending Winnipeg Center
Fri 10:27:17 AM 50.4667 -98.2333 141° Southeast 280 322 13,500 -1,050 Descending Winnipeg Center
Fri 10:28:17 AM 50.4333 -98.1500 122° Southeast 280 322 12,300 -1,250 Descending Winnipeg Center
Fri 10:29:17 AM 50.3833 -98.0333 124° Southeast 280 322 11,000 -1,250 Descending Winnipeg Center
Fri 10:30:17 AM 50.3333 -97.9667 140° Southeast 270 311 9,800 -1,150 Descending Winnipeg Center
Fri 10:31:17 AM 50.2833 -97.8833 133° Southeast 260 299 8,700 -1,100 Descending Winnipeg Center
Fri 10:32:17 AM 50.2333 -97.8000 133° Southeast 240 276 7,600 -1,050 Descending Winnipeg Center
Fri 10:33:17 AM 50.1833 -97.7167 133° Southeast 230 265 6,600 -950 Descending Winnipeg Center
Fri 10:34:17 AM 50.1333 -97.6667 147° Southeast 220 253 5,700 -1,000 Descending Winnipeg Center
Fri 10:35:17 AM 50.1000 -97.5833 122° Southeast 220 253 4,600 -950 Descending Winnipeg Center
Fri 10:36:17 AM 50.0500 -97.5333 147° Southeast 210 242 3,800 -700 Descending Winnipeg Center
Fri 10:37:17 AM 50.0167 -97.4667 128° Southeast 210 242 3,200 -550 Descending Winnipeg Center
Fri 10:38:17 AM 49.9667 -97.4000 139° Southeast 210 242 2,700 -400 Descending Winnipeg Center
Fri 10:39:17 AM 49.9333 -97.3333 128° Southeast 200 230 2,400 -350 Descending Winnipeg Center
Fri 10:40:17 AM 49.9000 -97.2833 136° Southeast 190 219 2,000 -350 Descending Winnipeg Center
Fri 10:41:17 AM 49.8667 -97.2333 136° Southeast 160 184 1,700 -300 Descending Winnipeg Center

Login

Don't have an account? Register now (free) for customized features, flight alerts, and more!